createdAt,value
2022-09-28T00:00:40.592Z,15.20
2022-09-28T00:03:29.884Z,15.23
2022-09-28T00:06:03.340Z,15.23
2022-09-28T00:08:32.246Z,15.24
2022-09-28T00:11:02.415Z,15.25
2022-09-28T00:13:32.923Z,15.29
2022-09-28T00:16:07.479Z,15.32
2022-09-28T00:18:37.879Z,15.37
2022-09-28T00:21:08.285Z,15.41
2022-09-28T00:23:59.352Z,15.43
2022-09-28T00:26:28.541Z,15.46
2022-09-28T00:29:00.047Z,15.48
2022-09-28T00:31:32.059Z,15.52
2022-09-28T00:34:05.552Z,15.50
2022-09-28T00:36:35.365Z,15.46
2022-09-28T00:39:07.791Z,15.44
2022-09-28T00:41:36.963Z,15.39
2022-09-28T00:44:37.123Z,15.38
2022-09-28T00:47:15.315Z,15.35
2022-09-28T00:49:45.933Z,15.34
2022-09-28T00:52:18.324Z,15.34
2022-09-28T00:54:50.443Z,15.34
2022-09-28T00:57:20.396Z,15.36
2022-09-28T00:59:51.893Z,15.36
2022-09-28T01:02:21.867Z,15.39
2022-09-28T01:04:52.539Z,15.42
2022-09-28T01:07:23.522Z,15.43
2022-09-28T01:09:53.977Z,15.46
2022-09-28T01:12:23.365Z,15.51
2022-09-28T01:14:54.189Z,15.54
2022-09-28T01:17:31.087Z,15.53
2022-09-28T01:20:40.824Z,15.55
2022-09-28T01:23:40.658Z,15.53
2022-09-28T01:26:42.717Z,15.54
2022-09-28T01:29:18.983Z,15.55
2022-09-28T01:31:51.291Z,15.55
2022-09-28T01:34:25.870Z,15.57
2022-09-28T01:36:58.601Z,15.60
2022-09-28T01:39:32.682Z,15.63
2022-09-28T01:42:05.793Z,15.63
2022-09-28T01:44:39.312Z,15.63
2022-09-28T01:47:12.635Z,15.64
2022-09-28T01:49:45.129Z,15.62
2022-09-28T01:52:18.189Z,15.62
2022-09-28T01:54:51.669Z,15.64
2022-09-28T01:57:25.116Z,15.69
2022-09-28T02:00:01.958Z,15.67
2022-09-28T02:02:34.978Z,15.65
2022-09-28T02:05:06.954Z,15.62
2022-09-28T02:07:39.794Z,15.58
2022-09-28T02:10:15.369Z,15.58
2022-09-28T02:12:46.984Z,15.60
2022-09-28T02:15:20.103Z,15.58
2022-09-28T02:17:49.230Z,15.54
2022-09-28T02:20:18.790Z,15.52
2022-09-28T02:22:50.973Z,15.51
2022-09-28T02:25:26.196Z,15.42
2022-09-28T02:27:57.001Z,15.38
2022-09-28T02:30:25.617Z,15.36
2022-09-28T02:33:01.208Z,15.32
2022-09-28T02:35:29.871Z,15.25
2022-09-28T02:37:58.366Z,15.18
2022-09-28T02:40:31.844Z,15.05
2022-09-28T02:43:09.544Z,14.94
2022-09-28T02:45:59.827Z,14.87
2022-09-28T02:48:52.235Z,14.81
2022-09-28T02:51:32.361Z,14.73
2022-09-28T02:54:18.911Z,14.67
2022-09-28T02:56:55.484Z,14.60
2022-09-28T03:03:31.054Z,14.55
2022-09-28T03:06:03.654Z,14.47
2022-09-28T03:08:35.821Z,14.38
2022-09-28T03:11:11.049Z,14.30
2022-09-28T03:13:43.068Z,14.24
2022-09-28T03:16:14.616Z,14.15
2022-09-28T03:18:45.349Z,14.10
2022-09-28T03:21:15.412Z,14.01
2022-09-28T03:23:43.958Z,13.97
2022-09-28T03:26:12.849Z,13.94
2022-09-28T03:28:43.567Z,13.91
2022-09-28T03:31:12.835Z,13.90
2022-09-28T03:33:42.296Z,13.88
2022-09-28T03:36:11.235Z,13.87
2022-09-28T03:38:40.126Z,13.86
2022-09-28T03:41:09.231Z,13.86
2022-09-28T03:43:37.611Z,13.87
2022-09-28T03:46:07.563Z,13.85
2022-09-28T03:48:36.983Z,13.84
2022-09-28T03:51:08.612Z,13.84
2022-09-28T03:53:39.448Z,13.86
2022-09-28T03:56:12.660Z,13.86
2022-09-28T03:58:42.816Z,13.84
2022-09-28T04:01:17.948Z,13.82
2022-09-28T04:03:53.080Z,13.81
2022-09-28T04:06:22.860Z,13.84
2022-09-28T04:08:54.202Z,13.83
2022-09-28T04:11:25.417Z,13.80
2022-09-28T04:13:53.938Z,13.77
2022-09-28T04:16:23.025Z,13.79
2022-09-28T04:18:52.226Z,13.73
2022-09-28T04:21:21.966Z,13.66
2022-09-28T04:23:50.431Z,13.63
2022-09-28T04:26:21.375Z,13.59
2022-09-28T04:29:09.281Z,13.59
2022-09-28T04:31:42.503Z,13.54
2022-09-28T04:34:11.901Z,13.53
2022-09-28T04:36:42.021Z,13.51
2022-09-28T04:39:11.928Z,13.50
2022-09-28T04:41:40.394Z,13.49
2022-09-28T04:44:09.900Z,13.48
2022-09-28T04:46:40.743Z,13.49
2022-09-28T04:49:11.467Z,13.49
2022-09-28T04:51:42.290Z,13.52
2022-09-28T04:54:15.606Z,13.55
2022-09-28T04:56:45.440Z,13.59
2022-09-28T04:59:14.100Z,13.63
2022-09-28T05:01:45.111Z,13.69
2022-09-28T05:04:16.981Z,13.70
2022-09-28T05:06:45.693Z,13.74
2022-09-28T05:09:14.716Z,13.82
2022-09-28T05:11:43.853Z,13.86
2022-09-28T05:14:15.928Z,13.90
2022-09-28T05:16:47.158Z,13.90
2022-09-28T05:19:16.066Z,13.90
2022-09-28T05:21:48.211Z,13.95
2022-09-28T05:24:17.694Z,14.00
2022-09-28T05:26:47.975Z,14.04
2022-09-28T05:29:18.153Z,14.07
2022-09-28T05:31:47.378Z,14.10
2022-09-28T05:34:17.521Z,14.11
2022-09-28T05:36:46.791Z,14.09
2022-09-28T05:39:17.176Z,14.11
2022-09-28T05:41:45.696Z,14.10
2022-09-28T05:44:16.585Z,14.13
2022-09-28T05:46:46.297Z,14.19
2022-09-28T05:49:15.585Z,14.23
2022-09-28T05:51:44.237Z,14.30
2022-09-28T05:54:14.784Z,14.36
2022-09-28T05:56:44.509Z,14.44
2022-09-28T05:59:13.907Z,14.58
2022-09-28T06:01:43.115Z,14.70
2022-09-28T06:04:12.179Z,14.77
2022-09-28T06:06:40.755Z,14.81
2022-09-28T06:09:11.222Z,14.85
2022-09-28T06:11:41.244Z,14.88
2022-09-28T06:14:13.012Z,14.91
2022-09-28T06:16:43.973Z,15.02
2022-09-28T06:19:13.137Z,15.07
2022-09-28T06:21:42.530Z,15.13
2022-09-28T06:24:11.780Z,15.20
2022-09-28T06:26:41.863Z,15.27
2022-09-28T06:29:18.680Z,15.34
2022-09-28T06:31:48.299Z,15.40
2022-09-28T06:34:19.355Z,15.44
2022-09-28T06:36:49.568Z,15.47
2022-09-28T06:39:18.949Z,15.44
2022-09-28T06:41:47.556Z,15.47
2022-09-28T06:44:19.397Z,15.51
2022-09-28T06:46:47.867Z,15.50
2022-09-28T06:49:19.445Z,15.52
2022-09-28T06:51:50.605Z,15.59
2022-09-28T06:54:25.016Z,15.64
2022-09-28T06:56:53.740Z,15.71
2022-09-28T06:59:22.400Z,15.74
2022-09-28T07:01:53.175Z,15.76
2022-09-28T07:04:22.842Z,15.77
2022-09-28T07:06:54.410Z,15.73
2022-09-28T07:09:32.370Z,15.76
2022-09-28T07:12:04.461Z,15.83
2022-09-28T07:14:47.352Z,15.86
2022-09-28T07:17:18.180Z,15.93
2022-09-28T07:19:52.314Z,15.95
2022-09-28T07:22:35.443Z,15.99
2022-09-28T07:25:09.599Z,16.08
2022-09-28T07:27:39.175Z,16.19
2022-09-28T07:30:10.787Z,16.31
2022-09-28T07:32:39.653Z,16.44
2022-09-28T07:35:10.177Z,16.54
2022-09-28T07:37:39.856Z,16.64
2022-09-28T07:40:30.124Z,16.61
2022-09-28T07:43:05.563Z,16.53
2022-09-28T07:45:36.435Z,16.56
2022-09-28T07:48:06.380Z,16.67
2022-09-28T07:50:36.160Z,16.73
2022-09-28T07:53:06.186Z,16.80
2022-09-28T07:55:35.614Z,16.92
2022-09-28T07:58:04.834Z,17.02
2022-09-28T08:00:34.518Z,17.16
2022-09-28T08:03:05.521Z,17.26
2022-09-28T08:05:35.375Z,17.44
2022-09-28T08:08:05.447Z,17.58
2022-09-28T08:10:35.154Z,17.67
2022-09-28T08:13:08.687Z,17.77
2022-09-28T08:15:38.726Z,17.84
2022-09-28T08:18:07.836Z,17.80
2022-09-28T08:21:07.947Z,17.85
2022-09-28T08:23:38.880Z,17.93
2022-09-28T08:26:10.984Z,17.94
2022-09-28T08:28:43.096Z,17.88
2022-09-28T08:31:11.991Z,17.75
2022-09-28T08:33:42.413Z,17.72
2022-09-28T08:36:13.828Z,17.82
2022-09-28T08:38:43.345Z,17.95
2022-09-28T08:41:18.916Z,18.10
2022-09-28T08:43:57.093Z,18.23
2022-09-28T08:46:32.160Z,18.31
2022-09-28T08:49:24.934Z,18.31
2022-09-28T08:52:00.398Z,18.41
2022-09-28T08:54:38.558Z,18.52
2022-09-28T08:57:10.444Z,18.71
2022-09-28T08:59:45.546Z,18.95
2022-09-28T09:02:17.855Z,19.18
2022-09-28T09:04:47.983Z,19.41
2022-09-28T09:07:46.877Z,19.54
2022-09-28T09:10:28.169Z,19.62
2022-09-28T09:13:04.309Z,19.71
2022-09-28T09:15:42.752Z,19.88
2022-09-28T09:18:22.280Z,20.09
2022-09-28T09:20:56.120Z,20.21
2022-09-28T09:23:34.171Z,20.31
2022-09-28T09:26:09.470Z,20.39
2022-09-28T09:29:03.614Z,20.33
2022-09-28T09:31:42.068Z,20.14
2022-09-28T09:34:25.510Z,20.01
2022-09-28T09:37:09.299Z,19.92
2022-09-28T09:39:46.509Z,19.97
2022-09-28T09:42:27.571Z,20.07
2022-09-28T09:45:18.689Z,20.11
2022-09-28T09:47:50.872Z,20.13
2022-09-28T09:50:30.262Z,20.10
2022-09-28T09:53:02.911Z,20.18
2022-09-28T09:55:36.529Z,20.26
2022-09-28T09:58:12.722Z,20.16
2022-09-28T10:00:44.272Z,20.06
2022-09-28T10:03:19.843Z,20.11
2022-09-28T10:05:53.821Z,20.15
2022-09-28T10:08:23.614Z,20.21
2022-09-28T10:10:56.356Z,20.23
2022-09-28T10:13:24.988Z,20.39
2022-09-28T10:15:55.673Z,20.55
2022-09-28T10:18:24.979Z,20.62
2022-09-28T10:20:53.867Z,20.57
2022-09-28T10:23:25.921Z,20.50
2022-09-28T10:25:57.012Z,20.46
2022-09-28T10:28:33.209Z,20.46
2022-09-28T10:31:03.286Z,20.48
2022-09-28T10:33:34.949Z,20.54
2022-09-28T10:36:07.976Z,20.63
2022-09-28T10:38:37.170Z,20.68
2022-09-28T10:41:12.804Z,20.67
2022-09-28T10:44:07.595Z,20.73
2022-09-28T10:46:39.496Z,20.78
2022-09-28T10:49:14.929Z,20.78
2022-09-28T10:51:46.203Z,20.83
2022-09-28T10:54:18.244Z,20.86
2022-09-28T10:56:48.462Z,20.99
2022-09-28T10:59:37.118Z,21.17
2022-09-28T11:02:21.307Z,21.28
2022-09-28T11:04:55.005Z,21.31
2022-09-28T11:07:26.353Z,21.34
2022-09-28T11:09:56.085Z,21.32
2022-09-28T11:12:27.379Z,21.18
2022-09-28T11:15:02.445Z,21.21
2022-09-28T11:17:38.244Z,21.32
2022-09-28T11:20:29.241Z,21.43
2022-09-28T11:22:59.708Z,21.68
2022-09-28T11:25:30.685Z,21.80
2022-09-28T11:28:03.923Z,21.99
2022-09-28T11:30:37.989Z,22.15
2022-09-28T11:33:11.495Z,22.27
2022-09-28T11:35:46.513Z,22.19
2022-09-28T11:38:33.572Z,22.09
2022-09-28T11:41:14.780Z,22.07
2022-09-28T11:44:02.873Z,22.07
2022-09-28T11:46:38.010Z,22.22
2022-09-28T11:49:15.003Z,22.45
2022-09-28T11:51:45.327Z,22.56
2022-09-28T11:54:19.514Z,22.62
2022-09-28T11:56:52.910Z,22.63
2022-09-28T11:59:27.107Z,22.79
2022-09-28T12:01:57.925Z,23.17
2022-09-28T12:04:34.314Z,23.61
2022-09-28T12:07:06.783Z,24.02
2022-09-28T12:09:38.207Z,24.22
2022-09-28T12:12:15.661Z,24.09
2022-09-28T12:14:46.360Z,23.82
2022-09-28T12:17:21.569Z,23.58
2022-09-28T12:19:54.866Z,23.33
2022-09-28T12:22:28.972Z,23.10
2022-09-28T12:24:58.311Z,22.83
2022-09-28T12:27:32.819Z,22.63
2022-09-28T12:30:05.319Z,22.57
2022-09-28T12:32:38.274Z,22.48
2022-09-28T12:35:15.594Z,22.36
2022-09-28T12:38:24.316Z,22.31
2022-09-28T12:40:59.271Z,22.43
2022-09-28T12:43:55.785Z,22.74
2022-09-28T12:46:39.110Z,22.98
2022-09-28T12:52:29.370Z,23.46
2022-09-28T12:55:19.629Z,23.77
2022-09-28T12:57:57.676Z,24.12
2022-09-28T13:00:29.398Z,24.19
2022-09-28T13:03:26.431Z,24.20
2022-09-28T13:06:24.068Z,24.25
2022-09-28T13:09:05.146Z,24.24
2022-09-28T13:11:43.486Z,24.12
2022-09-28T13:14:28.864Z,23.95
2022-09-28T13:17:02.774Z,23.90
2022-09-28T13:19:40.732Z,23.89
2022-09-28T13:22:20.454Z,23.90
2022-09-28T13:24:51.732Z,23.78
2022-09-28T13:27:28.796Z,23.59
2022-09-28T13:30:02.753Z,23.39
2022-09-28T13:32:32.215Z,23.23
2022-09-28T13:35:02.784Z,23.00
2022-09-28T13:37:33.899Z,22.80
2022-09-28T13:40:05.527Z,22.64
2022-09-28T13:43:10.558Z,22.55
2022-09-28T13:45:50.750Z,22.52
2022-09-28T13:48:22.371Z,22.45
2022-09-28T13:51:03.996Z,22.38
2022-09-28T13:53:43.258Z,22.26
2022-09-28T13:56:24.291Z,22.17
2022-09-28T13:58:55.862Z,22.10
2022-09-28T14:01:29.113Z,22.06
2022-09-28T14:04:13.304Z,21.92
2022-09-28T14:06:48.141Z,21.81
2022-09-28T14:09:42.001Z,21.71
2022-09-28T14:12:45.841Z,21.68
2022-09-28T14:15:41.433Z,21.61
2022-09-28T14:18:23.608Z,21.56
2022-09-28T14:21:21.150Z,21.52
2022-09-28T14:24:10.819Z,21.52
2022-09-28T14:27:03.051Z,21.54
2022-09-28T14:29:37.195Z,21.52
2022-09-28T14:32:22.904Z,21.45
2022-09-28T14:34:59.819Z,21.39
2022-09-28T14:37:50.746Z,21.31
2022-09-28T14:40:52.011Z,21.22
2022-09-28T14:43:24.766Z,21.14
2022-09-28T14:46:36.997Z,21.07
2022-09-28T14:49:48.172Z,20.98
2022-09-28T14:52:42.229Z,20.91
2022-09-28T14:55:26.678Z,20.85
2022-09-28T14:57:58.650Z,20.80
2022-09-28T15:00:31.445Z,20.74
2022-09-28T15:03:02.632Z,20.69
2022-09-28T15:05:38.247Z,20.65
2022-09-28T15:08:08.105Z,20.63
2022-09-28T15:10:42.000Z,20.63
2022-09-28T15:13:20.818Z,20.60
2022-09-28T15:15:53.444Z,20.61
2022-09-28T15:18:43.680Z,20.65
2022-09-28T15:21:13.890Z,20.63
2022-09-28T15:23:47.124Z,20.64
2022-09-28T15:26:27.026Z,20.61
2022-09-28T15:28:56.591Z,20.57
2022-09-28T15:31:27.442Z,20.51
2022-09-28T15:34:15.691Z,20.50
2022-09-28T15:36:46.356Z,20.45
2022-09-28T15:39:18.906Z,20.43
2022-09-28T15:41:50.511Z,20.42
2022-09-28T15:44:29.153Z,20.41
2022-09-28T15:47:10.589Z,20.39
2022-09-28T15:49:44.744Z,20.37
2022-09-28T15:52:37.119Z,20.35
2022-09-28T15:55:19.927Z,20.32
2022-09-28T15:57:50.855Z,20.25
2022-09-28T16:00:28.571Z,20.07
2022-09-28T16:03:21.860Z,19.80
2022-09-28T16:05:51.628Z,19.26
2022-09-28T16:08:24.032Z,18.85
2022-09-28T16:10:57.140Z,18.60
2022-09-28T16:13:26.841Z,18.47
2022-09-28T16:15:59.206Z,18.36
2022-09-28T16:18:29.896Z,18.26
2022-09-28T16:21:23.804Z,18.22
2022-09-28T16:23:55.040Z,18.16
2022-09-28T16:26:31.800Z,18.09
2022-09-28T16:29:02.934Z,18.02
2022-09-28T16:31:36.587Z,17.97
2022-09-28T16:34:21.611Z,17.94
2022-09-28T16:36:52.252Z,17.85
2022-09-28T16:39:23.110Z,17.79
2022-09-28T16:41:54.764Z,17.74
2022-09-28T16:44:27.997Z,17.70
2022-09-28T16:47:01.060Z,17.66
2022-09-28T16:49:35.304Z,17.64
2022-09-28T16:52:11.194Z,17.63
2022-09-28T16:55:07.445Z,17.60
2022-09-28T16:57:49.655Z,17.58
2022-09-28T17:00:24.906Z,17.54
2022-09-28T17:02:55.592Z,17.53
2022-09-28T17:05:25.317Z,17.55
2022-09-28T17:08:02.657Z,17.55
2022-09-28T17:10:50.125Z,17.55
2022-09-28T17:13:30.845Z,17.54
2022-09-28T17:16:01.915Z,17.53
2022-09-28T17:18:32.499Z,17.55
2022-09-28T17:21:05.253Z,17.55
2022-09-28T17:23:35.210Z,17.58
2022-09-28T17:26:06.323Z,17.60
2022-09-28T17:28:38.299Z,17.60
2022-09-28T17:31:15.537Z,17.62
2022-09-28T17:33:45.579Z,17.66
2022-09-28T17:36:17.336Z,17.68
2022-09-28T17:38:51.114Z,17.66
2022-09-28T17:41:21.832Z,17.69
2022-09-28T17:43:51.796Z,17.70
2022-09-28T17:46:27.102Z,17.75
2022-09-28T17:49:00.409Z,17.77
2022-09-28T17:51:31.691Z,17.78
2022-09-28T17:54:01.204Z,17.81
2022-09-28T17:56:32.618Z,17.81
2022-09-28T17:59:06.408Z,17.75
2022-09-28T18:01:39.784Z,17.75
2022-09-28T18:04:23.029Z,17.83
2022-09-28T18:06:58.740Z,17.82
2022-09-28T18:09:29.975Z,17.75
2022-09-28T18:12:06.140Z,17.72
2022-09-28T18:14:38.518Z,17.76
2022-09-28T18:17:08.203Z,17.82
2022-09-28T18:19:38.654Z,17.82
2022-09-28T18:22:07.548Z,17.72
2022-09-28T18:24:39.225Z,17.67
2022-09-28T18:27:09.520Z,17.66
2022-09-28T18:29:39.922Z,17.63
2022-09-28T18:32:11.039Z,17.54
2022-09-28T18:34:41.165Z,17.49
2022-09-28T18:37:11.461Z,17.48
2022-09-28T18:39:41.779Z,17.40
2022-09-28T18:42:11.657Z,17.32
2022-09-28T18:44:41.484Z,17.33
2022-09-28T18:47:13.063Z,17.39
2022-09-28T18:49:46.587Z,17.33
2022-09-28T18:52:16.477Z,17.28
2022-09-28T18:54:46.588Z,17.30
2022-09-28T18:57:17.354Z,17.16
2022-09-28T18:59:48.365Z,17.07
2022-09-28T19:02:19.722Z,17.07
2022-09-28T19:04:48.576Z,17.07
2022-09-28T19:07:20.979Z,17.11
2022-09-28T19:09:53.031Z,17.13
2022-09-28T19:12:21.800Z,17.16
2022-09-28T19:14:51.425Z,17.21
2022-09-28T19:17:22.575Z,17.25
2022-09-28T19:19:55.358Z,17.25
2022-09-28T19:22:25.065Z,17.26
2022-09-28T19:24:56.684Z,17.25
2022-09-28T19:27:29.828Z,17.20
2022-09-28T19:29:59.297Z,17.18
2022-09-28T19:32:32.554Z,17.17
2022-09-28T19:35:04.868Z,17.17
2022-09-28T19:37:36.386Z,17.11
2022-09-28T19:40:10.050Z,17.08
2022-09-28T19:42:39.537Z,17.00
2022-09-28T19:45:11.198Z,16.97
2022-09-28T19:47:40.276Z,16.99
2022-09-28T19:50:10.834Z,17.02
2022-09-28T19:52:41.024Z,17.04
2022-09-28T19:55:10.462Z,17.07
2022-09-28T19:57:39.080Z,17.08
2022-09-28T20:00:13.492Z,17.11
2022-09-28T20:02:43.233Z,17.07
2022-09-28T20:05:13.303Z,17.05
2022-09-28T20:07:42.337Z,17.06
2022-09-28T20:10:12.158Z,17.04
2022-09-28T20:12:47.162Z,17.07
2022-09-28T20:15:16.943Z,17.06
2022-09-28T20:17:45.620Z,17.08
2022-09-28T20:20:14.447Z,17.08
2022-09-28T20:22:44.439Z,17.05
2022-09-28T20:25:14.336Z,17.03
2022-09-28T20:27:43.142Z,16.98
2022-09-28T20:30:14.672Z,16.92
2022-09-28T20:32:49.431Z,16.87
2022-09-28T20:35:32.325Z,16.85
2022-09-28T20:38:08.819Z,16.85
2022-09-28T20:40:41.391Z,16.85
2022-09-28T20:43:11.991Z,16.85
2022-09-28T20:45:43.524Z,16.84
2022-09-28T20:48:14.897Z,16.77
2022-09-28T20:50:44.519Z,16.80
2022-09-28T20:53:14.017Z,16.83
2022-09-28T20:55:44.011Z,16.89
2022-09-28T20:58:13.890Z,16.90
2022-09-28T21:00:42.554Z,16.94
2022-09-28T21:03:12.478Z,16.96
2022-09-28T21:05:41.989Z,16.97
2022-09-28T21:08:14.129Z,16.96
2022-09-28T21:10:47.749Z,16.97
2022-09-28T21:13:17.709Z,16.98
2022-09-28T21:15:46.366Z,17.01
2022-09-28T21:18:17.578Z,17.01
2022-09-28T21:20:48.389Z,17.03
2022-09-28T21:23:23.953Z,17.04
2022-09-28T21:26:03.550Z,17.03
2022-09-28T21:28:33.998Z,17.03
2022-09-28T21:31:05.478Z,17.04
2022-09-28T21:33:35.122Z,17.04
2022-09-28T21:36:07.085Z,17.06
2022-09-28T21:38:36.088Z,17.06
2022-09-28T21:41:06.078Z,17.05
2022-09-28T21:43:34.734Z,17.04
2022-09-28T21:46:05.880Z,17.04
2022-09-28T21:48:34.734Z,17.07
2022-09-28T21:51:07.337Z,17.06
2022-09-28T21:53:37.786Z,17.05
2022-09-28T21:56:10.306Z,17.04
2022-09-28T21:58:39.761Z,17.04
2022-09-28T22:01:16.149Z,17.05
2022-09-28T22:03:48.293Z,17.03
2022-09-28T22:06:20.908Z,17.05
2022-09-28T22:08:50.181Z,17.05
2022-09-28T22:11:22.397Z,17.07
2022-09-28T22:13:53.736Z,17.06
2022-09-28T22:16:24.791Z,17.06
2022-09-28T22:18:54.403Z,17.07
2022-09-28T22:21:24.226Z,17.04
2022-09-28T22:23:54.378Z,17.06
2022-09-28T22:26:24.226Z,17.09
2022-09-28T22:28:55.709Z,17.09
2022-09-28T22:31:26.713Z,17.07
2022-09-28T22:33:55.837Z,17.01
2022-09-28T22:36:27.623Z,16.98
2022-09-28T22:38:58.721Z,16.97
2022-09-28T22:41:29.537Z,16.96
2022-09-28T22:43:59.737Z,16.97
2022-09-28T22:46:32.440Z,16.90
2022-09-28T22:49:02.798Z,16.83
2022-09-28T22:51:32.065Z,16.81
2022-09-28T22:54:03.666Z,16.82
2022-09-28T22:56:33.473Z,16.79
2022-09-28T22:59:04.209Z,16.74
2022-09-28T23:01:36.105Z,16.70
2022-09-28T23:04:05.707Z,16.66
2022-09-28T23:06:35.623Z,16.68
2022-09-28T23:09:06.814Z,16.68
2022-09-28T23:11:35.976Z,16.69
2022-09-28T23:14:07.053Z,16.70
2022-09-28T23:16:35.423Z,16.70
2022-09-28T23:19:06.564Z,16.62
2022-09-28T23:21:36.793Z,16.52
2022-09-28T23:24:06.289Z,16.44
2022-09-28T23:26:36.353Z,16.42
2022-09-28T23:29:06.227Z,16.43
2022-09-28T23:31:36.225Z,16.39
2022-09-28T23:34:06.908Z,16.39
2022-09-28T23:36:36.274Z,16.40
2022-09-28T23:39:09.004Z,16.45
2022-09-28T23:41:40.310Z,16.41
2022-09-28T23:44:08.765Z,16.42
2022-09-28T23:46:39.086Z,16.42
2022-09-28T23:49:08.723Z,16.39
2022-09-28T23:51:38.823Z,16.39
2022-09-28T23:54:08.558Z,16.40
2022-09-28T23:56:39.714Z,16.39
2022-09-28T23:59:13.397Z,16.37
